(°F)
39°
38°
38°
37°
37°
37°
37°
(°F)
31°
30°
29°
28°
27°
27°
26°
WSW
WNW
W
W
W
W
W
(mph)
8-23
9-20
9-15
10-15
12-18
12-19
13-20
(in)
0
0
0
0
0
0
0
(%)
84
60
47
41
47
29
22

Sun elevation

/ -18.5°
sun-icon
UV 0
10:42
15:50
Waning crescent (334°)
07:25
15:17

METAR for Reykjavik (BIRK)

Time Conditions Temperature/
Dewpoint
Wind Visibility Weather Clouds Pressure Change Raw
IFR 37.4°F / 33.8°F 170º variable 120º to 230º 3kt 4000m Light Rain 1.00mm precipitation Vertical Visibility of 0ft. 999 - BIRK 020700Z 17003KT 120V230 4000 -RA OVC017 03/01 Q0999
VFR 39.2°F / 32°F 130º 21kt >10km in the Vicinity Showers Vertical Visibility of 0ft.
Broken Clouds 4500ft
999 - BIRK 020600Z 13021KT 9999 VCSH FEW024 BKN045 04/M00 Q0999
VFR 35.6°F / 30.2°F 110º 19kt Gust 31kt >10km - Few Clouds 1800ft
Overcast 5500ft
999 - BIRK 020500Z 11019G31KT 9999 FEW018 OVC055 02/M01 Q0999
MVFR 35.6°F / 30.2°F 90º 21kt >10km - Broken Clouds 1500ft
Overcast 5200ft
1001 - BIRK 020400Z 09021KT 9999 BKN015 OVC052 02/M01 Q1001
MVFR 33.8°F / 30.2°F 110º variable 080º to 140º 20kt 8000m Light Snow 1.00mm precipitation Vertical Visibility of 0ft.
Overcast 5000ft
1003 - BIRK 020300Z 11020KT 080V140 8000 -SN BKN022 OVC050 01/M01 Q1003
IFR 32°F / 30.2°F 120º 20kt Gust 30kt 4100m Light Snow 1.00mm precipitation Vertical Visibility of 0ft.
Overcast 2300ft
1007 - BIRK 020100Z 12020G30KT 4100 -SN FEW017 OVC023 00/M01 Q1007
MVFR 32°F / 28.4°F 110º 17kt 5000m Light Snow 1.00mm precipitation Vertical Visibility of 0ft.
Overcast 2400ft
1009 - BIRK 020000Z 11017KT 5000 -SN FEW015 OVC024 M00/M02 Q1009
MVFR 30.2°F / 26.6°F 100º 16kt 7000m Light Snow 1.00mm precipitation Vertical Visibility of 0ft. 1011 - BIRK 012300Z 10016KT 7000 -SN OVC031 M01/M03 Q1011
VFR 30.2°F / 26.6°F 110º 13kt >10km Light Snow 1.00mm precipitation Vertical Visibility of 0ft. 1012 - BIRK 012200Z 11013KT 9999 -SN OVC034 M01/M03 Q1012
MVFR 30.2°F / 21.2°F 90º 13kt 7000m Light Snow 1.00mm precipitation Vertical Visibility of 0ft.
Overcast 4200ft
1014 - BIRK 012100Z 09013KT 7000 -SN BKN021 OVC042 M01/M06 Q1014
VFR 30.2°F / 21.2°F 80º 13kt >10km - Overcast 3400ft 1015 - BIRK 012000Z 08013KT 9999 OVC034 M01/M06 Q1015
VFR 28.4°F / 17.6°F 80º 12kt >10km - Few Clouds 3400ft
Broken Clouds 10000ft
1016 - BIRK 011900Z 08012KT 9999 FEW034 BKN100 M02/M08 Q1016
VFR 28.4°F / 19.4°F 80º 12kt >10km - Scattered Clouds 3000ft
Broken Clouds 12000ft
1017 - BIRK 011800Z 08012KT 9999 SCT030 BKN120 M02/M07 Q1017
VFR 28.4°F / 17.6°F 80º 11kt >10km - Clouds and Visibility OK 1018 - BIRK 011700Z 08011KT CAVOK M02/M08 Q1018
VFR 26.6°F / 17.6°F 80º 8kt >10km - Clouds and Visibility OK 1018 - BIRK 011600Z 08008KT CAVOK M03/M08 Q1018
VFR 24.8°F / 17.6°F 110º 6kt >10km - Clouds and Visibility OK 1019 - BIRK 011500Z 11006KT CAVOK M04/M08 Q1019
VFR 24.8°F / 17.6°F 80º 5kt >10km - Clouds and Visibility OK 1018 - BIRK 011400Z 08005KT CAVOK M04/M08 Q1018
VFR 23°F / 17.6°F 90º 7kt >10km - Clouds and Visibility OK 1018 - BIRK 011300Z 09007KT CAVOK M05/M08 Q1018
VFR 23°F / 17.6°F 120º 7kt >10km - Clouds and Visibility OK 1018 - BIRK 011200Z 12007KT CAVOK M05/M08 Q1018
VFR 21.2°F / 15.8°F 140º 6kt >10km - Clouds and Visibility OK 1018 - BIRK 011100Z 14006KT CAVOK M06/M09 Q1018
VFR 19.4°F / 15.8°F 170º 3kt >10km - Few Clouds 2200ft 1018 - BIRK 011000Z 17003KT 9999 FEW022 M07/M09 Q1018
VFR 17.6°F / °F 160º 4kt >10km - Few Clouds 2200ft 1017 - BIRK 010900Z 16004KT 9999 FEW022 M08/M10 Q1017
VFR 17.6°F / °F 130º 3kt >10km - Clouds and Visibility OK 1016 - BIRK 010800Z 13003KT CAVOK M08/M10 Q1016
VFR 17.6°F / °F 140º 3kt >10km - Clouds and Visibility OK 1016 - BIRK 010700Z 14003KT CAVOK M08/M10 Q1016

IFR

37.4°F / 33.8°F

[More]
Wind 170º variable 120º to 230º 3kt
Visibility 4000m
Weather Light Rain 1.00mm precipitation
Clouds Vertical Visibility of 0ft.
Pressure 999
Change -
Raw BIRK 020700Z 17003KT 120V230 4000 -RA OVC017 03/01 Q0999

VFR

39.2°F / 32°F

[More]
Wind 130º 21kt
Visibility >10km
Weather in the Vicinity Showers
Clouds Vertical Visibility of 0ft.
Broken Clouds 4500ft
Pressure 999
Change -
Raw BIRK 020600Z 13021KT 9999 VCSH FEW024 BKN045 04/M00 Q0999

VFR

35.6°F / 30.2°F

[More]
Wind 110º 19kt Gust 31kt
Visibility >10km
Weather -
Clouds Few Clouds 1800ft
Overcast 5500ft
Pressure 999
Change -
Raw BIRK 020500Z 11019G31KT 9999 FEW018 OVC055 02/M01 Q0999

MVFR

35.6°F / 30.2°F

[More]
Wind 90º 21kt
Visibility >10km
Weather -
Clouds Broken Clouds 1500ft
Overcast 5200ft
Pressure 1001
Change -
Raw BIRK 020400Z 09021KT 9999 BKN015 OVC052 02/M01 Q1001

MVFR

33.8°F / 30.2°F

[More]
Wind 110º variable 080º to 140º 20kt
Visibility 8000m
Weather Light Snow 1.00mm precipitation
Clouds Vertical Visibility of 0ft.
Overcast 5000ft
Pressure 1003
Change -
Raw BIRK 020300Z 11020KT 080V140 8000 -SN BKN022 OVC050 01/M01 Q1003

IFR

32°F / 30.2°F

[More]
Wind 120º 20kt Gust 30kt
Visibility 4100m
Weather Light Snow 1.00mm precipitation
Clouds Vertical Visibility of 0ft.
Overcast 2300ft
Pressure 1007
Change -
Raw BIRK 020100Z 12020G30KT 4100 -SN FEW017 OVC023 00/M01 Q1007

MVFR

32°F / 28.4°F

[More]
Wind 110º 17kt
Visibility 5000m
Weather Light Snow 1.00mm precipitation
Clouds Vertical Visibility of 0ft.
Overcast 2400ft
Pressure 1009
Change -
Raw BIRK 020000Z 11017KT 5000 -SN FEW015 OVC024 M00/M02 Q1009

MVFR

30.2°F / 26.6°F

[More]
Wind 100º 16kt
Visibility 7000m
Weather Light Snow 1.00mm precipitation
Clouds Vertical Visibility of 0ft.
Pressure 1011
Change -
Raw BIRK 012300Z 10016KT 7000 -SN OVC031 M01/M03 Q1011

VFR

30.2°F / 26.6°F

[More]
Wind 110º 13kt
Visibility >10km
Weather Light Snow 1.00mm precipitation
Clouds Vertical Visibility of 0ft.
Pressure 1012
Change -
Raw BIRK 012200Z 11013KT 9999 -SN OVC034 M01/M03 Q1012

MVFR

30.2°F / 21.2°F

[More]
Wind 90º 13kt
Visibility 7000m
Weather Light Snow 1.00mm precipitation
Clouds Vertical Visibility of 0ft.
Overcast 4200ft
Pressure 1014
Change -
Raw BIRK 012100Z 09013KT 7000 -SN BKN021 OVC042 M01/M06 Q1014

VFR

30.2°F / 21.2°F

[More]
Wind 80º 13kt
Visibility >10km
Weather -
Clouds Overcast 3400ft
Pressure 1015
Change -
Raw BIRK 012000Z 08013KT 9999 OVC034 M01/M06 Q1015

VFR

28.4°F / 17.6°F

[More]
Wind 80º 12kt
Visibility >10km
Weather -
Clouds Few Clouds 3400ft
Broken Clouds 10000ft
Pressure 1016
Change -
Raw BIRK 011900Z 08012KT 9999 FEW034 BKN100 M02/M08 Q1016

VFR

28.4°F / 19.4°F

[More]
Wind 80º 12kt
Visibility >10km
Weather -
Clouds Scattered Clouds 3000ft
Broken Clouds 12000ft
Pressure 1017
Change -
Raw BIRK 011800Z 08012KT 9999 SCT030 BKN120 M02/M07 Q1017

VFR

28.4°F / 17.6°F

[More]
Wind 80º 11kt
Visibility >10km
Weather -
Clouds Clouds and Visibility OK
Pressure 1018
Change -
Raw BIRK 011700Z 08011KT CAVOK M02/M08 Q1018

VFR

26.6°F / 17.6°F

[More]
Wind 80º 8kt
Visibility >10km
Weather -
Clouds Clouds and Visibility OK
Pressure 1018
Change -
Raw BIRK 011600Z 08008KT CAVOK M03/M08 Q1018

VFR

24.8°F / 17.6°F

[More]
Wind 110º 6kt
Visibility >10km
Weather -
Clouds Clouds and Visibility OK
Pressure 1019
Change -
Raw BIRK 011500Z 11006KT CAVOK M04/M08 Q1019

VFR

24.8°F / 17.6°F

[More]
Wind 80º 5kt
Visibility >10km
Weather -
Clouds Clouds and Visibility OK
Pressure 1018
Change -
Raw BIRK 011400Z 08005KT CAVOK M04/M08 Q1018

VFR

23°F / 17.6°F

[More]
Wind 90º 7kt
Visibility >10km
Weather -
Clouds Clouds and Visibility OK
Pressure 1018
Change -
Raw BIRK 011300Z 09007KT CAVOK M05/M08 Q1018

VFR

23°F / 17.6°F

[More]
Wind 120º 7kt
Visibility >10km
Weather -
Clouds Clouds and Visibility OK
Pressure 1018
Change -
Raw BIRK 011200Z 12007KT CAVOK M05/M08 Q1018

VFR

21.2°F / 15.8°F

[More]
Wind 140º 6kt
Visibility >10km
Weather -
Clouds Clouds and Visibility OK
Pressure 1018
Change -
Raw BIRK 011100Z 14006KT CAVOK M06/M09 Q1018

VFR

19.4°F / 15.8°F

[More]
Wind 170º 3kt
Visibility >10km
Weather -
Clouds Few Clouds 2200ft
Pressure 1018
Change -
Raw BIRK 011000Z 17003KT 9999 FEW022 M07/M09 Q1018

VFR

17.6°F / °F

[More]
Wind 160º 4kt
Visibility >10km
Weather -
Clouds Few Clouds 2200ft
Pressure 1017
Change -
Raw BIRK 010900Z 16004KT 9999 FEW022 M08/M10 Q1017

VFR

17.6°F / °F

[More]
Wind 130º 3kt
Visibility >10km
Weather -
Clouds Clouds and Visibility OK
Pressure 1016
Change -
Raw BIRK 010800Z 13003KT CAVOK M08/M10 Q1016

VFR

17.6°F / °F

[More]
Wind 140º 3kt
Visibility >10km
Weather -
Clouds Clouds and Visibility OK
Pressure 1016
Change -
Raw BIRK 010700Z 14003KT CAVOK M08/M10 Q1016

TAF for Reykjavik (BIRK)

From till


Maximum Temperature 5ºC on . Minimum Temperature 1ºC on .
From till Wind 240º 15kt. Visibility 10km or more. Light Showers Rain . Broken Clouds 2500ft.
Temporarly from till Wind 240º 20kt. Gust 30kt. Showers Rain . Broken Clouds 1500ft.
Temporarly from till Visibility 2000m. Showers Snow . Broken Clouds 1000ft.

Raw: TAF BIRK 020444Z 0206/0306 24015KT 9999 -SHRA BKN025 TX05/0206Z TN01/0306Z TEMPO 0212/0223 24020G30KT SHRA BKN015CB TEMPO 0223/0306 2000 SHSN BKN010CB

Current satellite and rain images for Reykjavik, Iceland

The location marker is placed on Reykjavik. [More]

The real-time satellite image combines visible light during daytime with infrared radiation during nighttime. At night, the image is not dark as infrared radiation can detect temperature differences. Unfortunately, low clouds and fog are difficult to distinguish from ground temperatures and thus can be almost invisible during the night. Meteosat satellite images for Europe are updated in real-time every 5 minutes. GOES-16/GOES-17 (North & South America) and Himawari (Asia) images update every 10 minutes.

Precipitation is estimated from radar and satellites. At night precipitation estimates from satellites are less accurate than during daytime. Orange crosses mark places where lightning was detected (over Europe).

Copyright 2021 EUMETSAT / meteoblue. Lightning data provided by nowcast.

Radar and precipitation nowcast for Reykjavik

Drizzle
Light
Moderate
Heavy
Very Heavy
Hail

The location marker is placed on Reykjavik. This animation shows the precipitation radar for the last hour, as well as a 1h forecast. Drizzle or light snow fall might be invisible for the radar. Precipitation intensity is colour coded, ranging from light blue to orange.